sensor_id;sensor_type;location;lat;lon;timestamp;P1;durP1;ratioP1;P2;durP2;ratioP2
69956;SDS011;57283;54.816;9.482;2023-09-12T00:02:27;26.45;;;13.10;;
69956;SDS011;57283;54.816;9.482;2023-09-12T00:04:55;26.02;;;14.27;;
69956;SDS011;57283;54.816;9.482;2023-09-12T00:07:23;25.45;;;13.10;;
69956;SDS011;57283;54.816;9.482;2023-09-12T00:09:51;29.77;;;15.23;;
69956;SDS011;57283;54.816;9.482;2023-09-12T00:12:21;23.90;;;13.50;;
69956;SDS011;57283;54.816;9.482;2023-09-12T00:14:49;26.85;;;14.75;;
69956;SDS011;57283;54.816;9.482;2023-09-12T00:17:17;28.67;;;14.30;;
69956;SDS011;57283;54.816;9.482;2023-09-12T00:19:46;25.55;;;13.60;;
69956;SDS011;57283;54.816;9.482;2023-09-12T00:22:13;27.58;;;13.82;;
69956;SDS011;57283;54.816;9.482;2023-09-12T00:24:41;26.53;;;15.00;;
69956;SDS011;57283;54.816;9.482;2023-09-12T00:27:09;30.23;;;14.85;;
69956;SDS011;57283;54.816;9.482;2023-09-12T00:29:36;30.65;;;15.75;;
69956;SDS011;57283;54.816;9.482;2023-09-12T00:32:04;29.52;;;15.38;;
69956;SDS011;57283;54.816;9.482;2023-09-12T00:34:32;30.15;;;14.93;;
69956;SDS011;57283;54.816;9.482;2023-09-12T00:37:01;30.23;;;15.60;;
69956;SDS011;57283;54.816;9.482;2023-09-12T00:39:28;28.13;;;14.52;;
69956;SDS011;57283;54.816;9.482;2023-09-12T00:41:56;29.38;;;14.75;;
69956;SDS011;57283;54.816;9.482;2023-09-12T00:44:24;26.45;;;14.27;;
69956;SDS011;57283;54.816;9.482;2023-09-12T00:46:51;25.33;;;13.73;;
69956;SDS011;57283;54.816;9.482;2023-09-12T00:49:21;26.27;;;13.40;;
69956;SDS011;57283;54.816;9.482;2023-09-12T00:51:49;26.02;;;13.95;;
69956;SDS011;57283;54.816;9.482;2023-09-12T00:54:19;23.85;;;13.55;;
69956;SDS011;57283;54.816;9.482;2023-09-12T00:56:47;25.25;;;14.27;;
69956;SDS011;57283;54.816;9.482;2023-09-12T00:59:14;24.77;;;13.45;;
69956;SDS011;57283;54.816;9.482;2023-09-12T01:01:44;27.40;;;13.33;;
69956;SDS011;57283;54.816;9.482;2023-09-12T01:04:12;23.92;;;13.48;;
69956;SDS011;57283;54.816;9.482;2023-09-12T01:06:59;25.90;;;12.93;;
69956;SDS011;57283;54.816;9.482;2023-09-12T01:09:28;28.63;;;13.85;;
69956;SDS011;57283;54.816;9.482;2023-09-12T01:11:56;28.00;;;13.52;;
69956;SDS011;57283;54.816;9.482;2023-09-12T01:14:24;26.67;;;14.07;;
69956;SDS011;57283;54.816;9.482;2023-09-12T01:16:51;27.23;;;13.82;;
69956;SDS011;57283;54.816;9.482;2023-09-12T01:19:19;26.80;;;13.48;;
69956;SDS011;57283;54.816;9.482;2023-09-12T01:21:52;25.20;;;13.95;;
69956;SDS011;57283;54.816;9.482;2023-09-12T01:27:16;23.67;;;13.07;;
69956;SDS011;57283;54.816;9.482;2023-09-12T01:29:45;25.48;;;13.80;;
69956;SDS011;57283;54.816;9.482;2023-09-12T01:32:13;27.13;;;14.20;;
69956;SDS011;57283;54.816;9.482;2023-09-12T01:34:41;22.23;;;12.57;;
69956;SDS011;57283;54.816;9.482;2023-09-12T01:37:09;22.08;;;12.77;;
69956;SDS011;57283;54.816;9.482;2023-09-12T01:39:36;24.97;;;13.63;;
69956;SDS011;57283;54.816;9.482;2023-09-12T01:42:04;27.55;;;13.45;;
69956;SDS011;57283;54.816;9.482;2023-09-12T01:44:34;24.65;;;13.38;;
69956;SDS011;57283;54.816;9.482;2023-09-12T01:47:03;24.70;;;13.80;;
69956;SDS011;57283;54.816;9.482;2023-09-12T01:49:31;25.27;;;14.23;;
69956;SDS011;57283;54.816;9.482;2023-09-12T01:52:00;28.07;;;13.60;;
69956;SDS011;57283;54.816;9.482;2023-09-12T01:54:28;24.13;;;13.40;;
69956;SDS011;57283;54.816;9.482;2023-09-12T01:56:56;24.48;;;12.95;;
69956;SDS011;57283;54.816;9.482;2023-09-12T01:59:25;23.52;;;12.82;;
69956;SDS011;57283;54.816;9.482;2023-09-12T02:01:54;25.20;;;13.02;;
69956;SDS011;57283;54.816;9.482;2023-09-12T02:04:22;25.47;;;13.13;;
69956;SDS011;57283;54.816;9.482;2023-09-12T02:06:49;21.75;;;13.07;;
69956;SDS011;57283;54.816;9.482;2023-09-12T02:09:17;23.38;;;13.57;;
69956;SDS011;57283;54.816;9.482;2023-09-12T02:11:44;23.42;;;13.13;;
69956;SDS011;57283;54.816;9.482;2023-09-12T02:14:12;24.98;;;13.27;;
69956;SDS011;57283;54.816;9.482;2023-09-12T02:16:40;23.17;;;13.13;;
69956;SDS011;57283;54.816;9.482;2023-09-12T02:19:11;23.48;;;13.45;;
69956;SDS011;57283;54.816;9.482;2023-09-12T02:21:39;23.75;;;13.75;;
69956;SDS011;57283;54.816;9.482;2023-09-12T02:24:07;22.58;;;13.02;;
69956;SDS011;57283;54.816;9.482;2023-09-12T02:26:34;22.67;;;12.55;;
69956;SDS011;57283;54.816;9.482;2023-09-12T02:29:03;26.70;;;13.70;;
69956;SDS011;57283;54.816;9.482;2023-09-12T02:31:32;30.83;;;15.10;;
69956;SDS011;57283;54.816;9.482;2023-09-12T02:33:59;24.02;;;13.40;;
69956;SDS011;57283;54.816;9.482;2023-09-12T02:36:29;25.15;;;13.70;;
69956;SDS011;57283;54.816;9.482;2023-09-12T02:38:57;24.92;;;13.85;;
69956;SDS011;57283;54.816;9.482;2023-09-12T02:41:25;25.17;;;13.63;;
69956;SDS011;57283;54.816;9.482;2023-09-12T02:43:52;26.50;;;14.13;;
69956;SDS011;57283;54.816;9.482;2023-09-12T02:46:20;24.85;;;14.13;;
69956;SDS011;57283;54.816;9.482;2023-09-12T02:48:48;27.30;;;14.02;;
69956;SDS011;57283;54.816;9.482;2023-09-12T02:51:15;25.88;;;13.88;;
69956;SDS011;57283;54.816;9.482;2023-09-12T02:53:44;27.37;;;15.07;;
69956;SDS011;57283;54.816;9.482;2023-09-12T02:56:12;26.85;;;13.52;;
69956;SDS011;57283;54.816;9.482;2023-09-12T02:58:39;30.75;;;15.10;;
69956;SDS011;57283;54.816;9.482;2023-09-12T03:01:07;27.27;;;15.10;;
69956;SDS011;57283;54.816;9.482;2023-09-12T03:03:41;26.55;;;14.65;;
69956;SDS011;57283;54.816;9.482;2023-09-12T03:06:10;28.87;;;14.70;;
69956;SDS011;57283;54.816;9.482;2023-09-12T03:08:38;27.00;;;14.23;;
69956;SDS011;57283;54.816;9.482;2023-09-12T03:11:08;27.15;;;14.30;;
69956;SDS011;57283;54.816;9.482;2023-09-12T03:13:36;25.77;;;13.88;;
69956;SDS011;57283;54.816;9.482;2023-09-12T03:16:04;26.77;;;14.20;;
69956;SDS011;57283;54.816;9.482;2023-09-12T03:18:31;27.60;;;14.23;;
69956;SDS011;57283;54.816;9.482;2023-09-12T03:21:00;26.40;;;14.15;;
69956;SDS011;57283;54.816;9.482;2023-09-12T03:23:28;29.15;;;15.00;;
69956;SDS011;57283;54.816;9.482;2023-09-12T03:25:59;27.95;;;15.05;;
69956;SDS011;57283;54.816;9.482;2023-09-12T03:28:28;29.13;;;14.45;;
69956;SDS011;57283;54.816;9.482;2023-09-12T03:31:03;30.07;;;14.77;;
69956;SDS011;57283;54.816;9.482;2023-09-12T03:33:30;29.80;;;15.82;;
69956;SDS011;57283;54.816;9.482;2023-09-12T03:35:58;31.17;;;15.95;;
69956;SDS011;57283;54.816;9.482;2023-09-12T03:38:26;27.30;;;14.77;;
69956;SDS011;57283;54.816;9.482;2023-09-12T03:40:53;30.98;;;14.73;;
69956;SDS011;57283;54.816;9.482;2023-09-12T03:43:21;27.57;;;15.73;;
69956;SDS011;57283;54.816;9.482;2023-09-12T03:45:50;27.58;;;15.18;;
69956;SDS011;57283;54.816;9.482;2023-09-12T03:48:17;28.08;;;15.57;;
69956;SDS011;57283;54.816;9.482;2023-09-12T03:50:45;27.42;;;15.10;;
69956;SDS011;57283;54.816;9.482;2023-09-12T03:53:14;32.20;;;16.27;;
69956;SDS011;57283;54.816;9.482;2023-09-12T03:55:41;31.43;;;15.57;;
69956;SDS011;57283;54.816;9.482;2023-09-12T03:58:09;30.23;;;15.48;;
69956;SDS011;57283;54.816;9.482;2023-09-12T04:00:37;27.27;;;15.57;;
69956;SDS011;57283;54.816;9.482;2023-09-12T04:03:06;27.98;;;15.05;;
69956;SDS011;57283;54.816;9.482;2023-09-12T04:05:34;29.92;;;15.68;;
69956;SDS011;57283;54.816;9.482;2023-09-12T04:08:01;27.20;;;15.27;;
69956;SDS011;57283;54.816;9.482;2023-09-12T04:10:29;28.00;;;15.82;;
69956;SDS011;57283;54.816;9.482;2023-09-12T04:12:58;27.13;;;15.27;;
69956;SDS011;57283;54.816;9.482;2023-09-12T04:15:26;29.00;;;16.50;;
69956;SDS011;57283;54.816;9.482;2023-09-12T04:17:53;30.80;;;14.82;;
69956;SDS011;57283;54.816;9.482;2023-09-12T04:20:22;28.53;;;16.10;;
69956;SDS011;57283;54.816;9.482;2023-09-12T04:22:50;31.52;;;15.75;;
69956;SDS011;57283;54.816;9.482;2023-09-12T04:25:18;28.48;;;15.77;;
69956;SDS011;57283;54.816;9.482;2023-09-12T04:27:46;30.98;;;15.20;;
69956;SDS011;57283;54.816;9.482;2023-09-12T04:30:14;30.55;;;16.10;;
69956;SDS011;57283;54.816;9.482;2023-09-12T04:32:41;28.23;;;16.23;;
69956;SDS011;57283;54.816;9.482;2023-09-12T04:35:09;31.10;;;15.73;;
69956;SDS011;57283;54.816;9.482;2023-09-12T04:37:38;29.83;;;16.38;;
69956;SDS011;57283;54.816;9.482;2023-09-12T04:40:06;34.03;;;16.90;;
69956;SDS011;57283;54.816;9.482;2023-09-12T04:42:35;28.80;;;15.98;;
69956;SDS011;57283;54.816;9.482;2023-09-12T04:45:03;29.00;;;16.30;;
69956;SDS011;57283;54.816;9.482;2023-09-12T04:47:30;28.58;;;17.50;;
69956;SDS011;57283;54.816;9.482;2023-09-12T04:49:58;31.02;;;16.88;;
69956;SDS011;57283;54.816;9.482;2023-09-12T04:52:27;29.02;;;16.67;;
69956;SDS011;57283;54.816;9.482;2023-09-12T04:54:59;30.38;;;16.73;;
69956;SDS011;57283;54.816;9.482;2023-09-12T04:57:26;29.23;;;16.27;;
69956;SDS011;57283;54.816;9.482;2023-09-12T04:59:57;30.60;;;16.55;;
69956;SDS011;57283;54.816;9.482;2023-09-12T05:02:25;31.55;;;16.95;;
69956;SDS011;57283;54.816;9.482;2023-09-12T05:04:53;35.67;;;17.83;;
69956;SDS011;57283;54.816;9.482;2023-09-12T05:07:21;30.80;;;17.15;;
69956;SDS011;57283;54.816;9.482;2023-09-12T05:09:49;30.27;;;17.33;;
69956;SDS011;57283;54.816;9.482;2023-09-12T05:12:18;33.58;;;17.95;;
69956;SDS011;57283;54.816;9.482;2023-09-12T05:14:46;30.95;;;17.48;;
69956;SDS011;57283;54.816;9.482;2023-09-12T05:17:13;30.73;;;17.42;;
69956;SDS011;57283;54.816;9.482;2023-09-12T05:19:41;31.30;;;16.60;;
69956;SDS011;57283;54.816;9.482;2023-09-12T05:22:09;31.43;;;16.97;;
69956;SDS011;57283;54.816;9.482;2023-09-12T05:24:36;32.47;;;18.10;;
69956;SDS011;57283;54.816;9.482;2023-09-12T05:27:04;28.75;;;16.77;;
69956;SDS011;57283;54.816;9.482;2023-09-12T05:29:33;31.90;;;17.80;;
69956;SDS011;57283;54.816;9.482;2023-09-12T05:32:01;32.65;;;17.33;;
69956;SDS011;57283;54.816;9.482;2023-09-12T05:34:29;32.23;;;17.17;;
69956;SDS011;57283;54.816;9.482;2023-09-12T05:36:57;32.08;;;17.30;;
69956;SDS011;57283;54.816;9.482;2023-09-12T05:39:24;31.65;;;17.30;;
69956;SDS011;57283;54.816;9.482;2023-09-12T05:41:52;30.00;;;17.25;;
69956;SDS011;57283;54.816;9.482;2023-09-12T05:44:20;30.38;;;17.58;;
69956;SDS011;57283;54.816;9.482;2023-09-12T05:46:49;30.77;;;16.50;;
69956;SDS011;57283;54.816;9.482;2023-09-12T05:49:16;28.77;;;17.23;;
69956;SDS011;57283;54.816;9.482;2023-09-12T05:51:44;29.50;;;16.25;;
69956;SDS011;57283;54.816;9.482;2023-09-12T05:54:12;32.33;;;16.83;;
69956;SDS011;57283;54.816;9.482;2023-09-12T05:56:40;30.33;;;16.42;;
69956;SDS011;57283;54.816;9.482;2023-09-12T05:59:07;27.87;;;16.10;;
69956;SDS011;57283;54.816;9.482;2023-09-12T06:01:35;32.72;;;16.98;;
69956;SDS011;57283;54.816;9.482;2023-09-12T06:04:04;26.05;;;15.43;;
69956;SDS011;57283;54.816;9.482;2023-09-12T06:06:32;29.33;;;16.63;;
69956;SDS011;57283;54.816;9.482;2023-09-12T06:09:00;30.58;;;17.20;;
69956;SDS011;57283;54.816;9.482;2023-09-12T06:11:28;28.40;;;15.97;;
69956;SDS011;57283;54.816;9.482;2023-09-12T06:13:57;32.30;;;16.38;;
69956;SDS011;57283;54.816;9.482;2023-09-12T06:16:25;29.73;;;15.82;;
69956;SDS011;57283;54.816;9.482;2023-09-12T06:18:53;30.30;;;16.83;;
69956;SDS011;57283;54.816;9.482;2023-09-12T06:21:22;31.17;;;16.80;;
69956;SDS011;57283;54.816;9.482;2023-09-12T06:26:35;27.80;;;16.23;;
69956;SDS011;57283;54.816;9.482;2023-09-12T06:29:02;30.48;;;15.90;;
69956;SDS011;57283;54.816;9.482;2023-09-12T06:31:30;26.40;;;14.70;;
69956;SDS011;57283;54.816;9.482;2023-09-12T06:33:58;31.73;;;16.52;;
69956;SDS011;57283;54.816;9.482;2023-09-12T06:36:27;32.00;;;16.13;;
69956;SDS011;57283;54.816;9.482;2023-09-12T06:38:56;30.50;;;16.05;;
69956;SDS011;57283;54.816;9.482;2023-09-12T06:41:24;33.40;;;16.38;;
69956;SDS011;57283;54.816;9.482;2023-09-12T06:43:52;30.88;;;17.45;;
69956;SDS011;57283;54.816;9.482;2023-09-12T06:46:19;30.73;;;15.63;;
69956;SDS011;57283;54.816;9.482;2023-09-12T06:48:47;29.93;;;16.53;;
69956;SDS011;57283;54.816;9.482;2023-09-12T06:51:16;28.40;;;16.35;;
69956;SDS011;57283;54.816;9.482;2023-09-12T06:53:45;27.83;;;15.82;;
69956;SDS011;57283;54.816;9.482;2023-09-12T06:56:14;28.08;;;16.45;;
69956;SDS011;57283;54.816;9.482;2023-09-12T06:58:42;27.42;;;15.52;;
69956;SDS011;57283;54.816;9.482;2023-09-12T07:01:10;27.43;;;15.40;;
69956;SDS011;57283;54.816;9.482;2023-09-12T07:03:37;29.70;;;16.38;;
69956;SDS011;57283;54.816;9.482;2023-09-12T07:06:06;26.02;;;14.98;;
69956;SDS011;57283;54.816;9.482;2023-09-12T07:08:34;27.80;;;15.57;;
69956;SDS011;57283;54.816;9.482;2023-09-12T07:11:05;30.00;;;15.80;;
69956;SDS011;57283;54.816;9.482;2023-09-12T07:13:33;24.77;;;13.93;;
69956;SDS011;57283;54.816;9.482;2023-09-12T07:16:00;26.20;;;15.57;;
69956;SDS011;57283;54.816;9.482;2023-09-12T07:18:30;25.50;;;15.95;;
69956;SDS011;57283;54.816;9.482;2023-09-12T07:20:59;24.02;;;13.75;;
69956;SDS011;57283;54.816;9.482;2023-09-12T07:23:27;26.15;;;13.77;;
69956;SDS011;57283;54.816;9.482;2023-09-12T07:25:55;25.40;;;14.47;;
69956;SDS011;57283;54.816;9.482;2023-09-12T07:28:25;24.27;;;13.95;;
69956;SDS011;57283;54.816;9.482;2023-09-12T07:30:53;20.35;;;13.40;;
69956;SDS011;57283;54.816;9.482;2023-09-12T07:33:21;24.55;;;13.13;;
69956;SDS011;57283;54.816;9.482;2023-09-12T07:35:50;20.73;;;13.10;;
69956;SDS011;57283;54.816;9.482;2023-09-12T07:38:19;22.50;;;13.73;;
69956;SDS011;57283;54.816;9.482;2023-09-12T07:40:47;20.65;;;13.82;;
69956;SDS011;57283;54.816;9.482;2023-09-12T07:43:15;19.80;;;12.73;;
69956;SDS011;57283;54.816;9.482;2023-09-12T07:45:44;20.08;;;11.75;;
69956;SDS011;57283;54.816;9.482;2023-09-12T07:48:12;18.70;;;11.40;;
69956;SDS011;57283;54.816;9.482;2023-09-12T07:50:39;19.77;;;11.80;;
69956;SDS011;57283;54.816;9.482;2023-09-12T07:53:07;19.08;;;11.70;;
69956;SDS011;57283;54.816;9.482;2023-09-12T07:55:36;18.52;;;12.10;;
69956;SDS011;57283;54.816;9.482;2023-09-12T07:58:12;15.23;;;10.80;;
69956;SDS011;57283;54.816;9.482;2023-09-12T08:00:39;18.10;;;10.05;;
69956;SDS011;57283;54.816;9.482;2023-09-12T08:03:09;16.47;;;9.70;;
69956;SDS011;57283;54.816;9.482;2023-09-12T08:05:37;15.80;;;9.70;;
69956;SDS011;57283;54.816;9.482;2023-09-12T08:08:04;14.05;;;9.35;;
69956;SDS011;57283;54.816;9.482;2023-09-12T08:10:32;14.27;;;9.10;;
69956;SDS011;57283;54.816;9.482;2023-09-12T08:13:00;14.35;;;9.15;;
69956;SDS011;57283;54.816;9.482;2023-09-12T08:15:27;17.97;;;8.90;;
69956;SDS011;57283;54.816;9.482;2023-09-12T08:17:55;14.90;;;9.05;;
69956;SDS011;57283;54.816;9.482;2023-09-12T08:20:24;13.27;;;9.02;;
69956;SDS011;57283;54.816;9.482;2023-09-12T08:22:52;13.10;;;8.90;;
69956;SDS011;57283;54.816;9.482;2023-09-12T08:25:20;13.45;;;8.35;;
69956;SDS011;57283;54.816;9.482;2023-09-12T08:27:48;12.67;;;8.13;;
69956;SDS011;57283;54.816;9.482;2023-09-12T08:30:15;13.73;;;8.25;;
69956;SDS011;57283;54.816;9.482;2023-09-12T08:32:43;13.07;;;8.13;;
69956;SDS011;57283;54.816;9.482;2023-09-12T08:35:11;11.43;;;7.93;;
69956;SDS011;57283;54.816;9.482;2023-09-12T08:37:41;11.27;;;7.85;;
69956;SDS011;57283;54.816;9.482;2023-09-12T08:40:09;10.53;;;7.50;;
69956;SDS011;57283;54.816;9.482;2023-09-12T08:42:39;11.13;;;7.15;;
69956;SDS011;57283;54.816;9.482;2023-09-12T08:45:09;11.07;;;7.65;;
69956;SDS011;57283;54.816;9.482;2023-09-12T08:47:39;11.15;;;7.03;;
69956;SDS011;57283;54.816;9.482;2023-09-12T08:50:08;10.63;;;7.88;;
69956;SDS011;57283;54.816;9.482;2023-09-12T08:52:37;11.77;;;7.30;;
69956;SDS011;57283;54.816;9.482;2023-09-12T08:55:18;9.70;;;7.28;;
69956;SDS011;57283;54.816;9.482;2023-09-12T08:57:47;10.25;;;6.45;;
69956;SDS011;57283;54.816;9.482;2023-09-12T09:00:16;8.98;;;6.20;;
69956;SDS011;57283;54.816;9.482;2023-09-12T09:02:44;12.18;;;6.70;;
69956;SDS011;57283;54.816;9.482;2023-09-12T09:05:12;11.33;;;6.13;;
69956;SDS011;57283;54.816;9.482;2023-09-12T09:07:40;9.05;;;6.10;;
69956;SDS011;57283;54.816;9.482;2023-09-12T09:10:10;9.18;;;5.95;;
69956;SDS011;57283;54.816;9.482;2023-09-12T09:12:39;8.75;;;6.10;;
69956;SDS011;57283;54.816;9.482;2023-09-12T09:15:25;14.02;;;7.55;;
69956;SDS011;57283;54.816;9.482;2023-09-12T09:17:54;9.93;;;6.43;;
69956;SDS011;57283;54.816;9.482;2023-09-12T09:20:25;9.25;;;5.78;;
69956;SDS011;57283;54.816;9.482;2023-09-12T09:22:57;10.10;;;6.20;;
69956;SDS011;57283;54.816;9.482;2023-09-12T09:25:25;9.77;;;6.10;;
69956;SDS011;57283;54.816;9.482;2023-09-12T09:27:54;9.98;;;5.57;;
69956;SDS011;57283;54.816;9.482;2023-09-12T09:30:38;10.23;;;6.87;;
69956;SDS011;57283;54.816;9.482;2023-09-12T09:33:06;11.55;;;6.18;;
69956;SDS011;57283;54.816;9.482;2023-09-12T09:35:34;8.20;;;6.03;;
69956;SDS011;57283;54.816;9.482;2023-09-12T09:38:02;9.57;;;5.80;;
69956;SDS011;57283;54.816;9.482;2023-09-12T09:40:31;8.68;;;6.00;;
69956;SDS011;57283;54.816;9.482;2023-09-12T09:43:00;10.07;;;5.43;;
69956;SDS011;57283;54.816;9.482;2023-09-12T09:45:29;8.27;;;5.50;;
69956;SDS011;57283;54.816;9.482;2023-09-12T09:47:57;8.18;;;5.72;;
69956;SDS011;57283;54.816;9.482;2023-09-12T09:50:25;8.82;;;6.03;;
69956;SDS011;57283;54.816;9.482;2023-09-12T09:52:54;7.97;;;5.85;;
69956;SDS011;57283;54.816;9.482;2023-09-12T09:55:23;8.57;;;6.80;;
69956;SDS011;57283;54.816;9.482;2023-09-12T09:57:51;8.80;;;5.70;;
69956;SDS011;57283;54.816;9.482;2023-09-12T10:00:21;8.95;;;5.13;;
69956;SDS011;57283;54.816;9.482;2023-09-12T10:02:49;7.10;;;4.93;;
69956;SDS011;57283;54.816;9.482;2023-09-12T10:05:18;9.88;;;6.05;;
69956;SDS011;57283;54.816;9.482;2023-09-12T10:07:47;7.70;;;6.03;;
69956;SDS011;57283;54.816;9.482;2023-09-12T10:10:16;8.18;;;5.70;;
69956;SDS011;57283;54.816;9.482;2023-09-12T10:12:48;10.15;;;5.68;;
69956;SDS011;57283;54.816;9.482;2023-09-12T10:15:17;7.65;;;5.47;;
69956;SDS011;57283;54.816;9.482;2023-09-12T10:17:47;7.07;;;5.82;;
69956;SDS011;57283;54.816;9.482;2023-09-12T10:20:20;7.33;;;5.90;;
69956;SDS011;57283;54.816;9.482;2023-09-12T10:22:50;6.80;;;6.00;;
69956;SDS011;57283;54.816;9.482;2023-09-12T10:25:19;7.53;;;6.40;;
69956;SDS011;57283;54.816;9.482;2023-09-12T10:27:47;11.38;;;5.85;;
69956;SDS011;57283;54.816;9.482;2023-09-12T10:30:15;7.85;;;6.30;;
69956;SDS011;57283;54.816;9.482;2023-09-12T10:32:46;8.40;;;5.80;;
69956;SDS011;57283;54.816;9.482;2023-09-12T10:35:14;8.33;;;6.40;;
69956;SDS011;57283;54.816;9.482;2023-09-12T10:37:42;8.45;;;5.72;;
69956;SDS011;57283;54.816;9.482;2023-09-12T10:40:12;7.50;;;5.68;;
69956;SDS011;57283;54.816;9.482;2023-09-12T10:42:41;7.40;;;5.30;;
69956;SDS011;57283;54.816;9.482;2023-09-12T10:45:10;6.80;;;6.00;;
69956;SDS011;57283;54.816;9.482;2023-09-12T10:47:37;8.90;;;5.00;;
69956;SDS011;57283;54.816;9.482;2023-09-12T10:50:07;8.07;;;5.32;;
69956;SDS011;57283;54.816;9.482;2023-09-12T10:52:35;7.93;;;5.72;;
69956;SDS011;57283;54.816;9.482;2023-09-12T10:55:06;7.85;;;5.60;;
69956;SDS011;57283;54.816;9.482;2023-09-12T10:57:34;6.80;;;5.53;;
69956;SDS011;57283;54.816;9.482;2023-09-12T11:00:11;8.40;;;5.63;;
69956;SDS011;57283;54.816;9.482;2023-09-12T11:02:39;10.93;;;6.00;;
69956;SDS011;57283;54.816;9.482;2023-09-12T11:07:55;8.07;;;5.65;;
69956;SDS011;57283;54.816;9.482;2023-09-12T11:10:23;10.70;;;5.72;;
69956;SDS011;57283;54.816;9.482;2023-09-12T11:12:51;9.20;;;6.00;;
69956;SDS011;57283;54.816;9.482;2023-09-12T11:15:19;8.82;;;6.15;;
69956;SDS011;57283;54.816;9.482;2023-09-12T11:17:48;8.65;;;5.53;;
69956;SDS011;57283;54.816;9.482;2023-09-12T11:20:16;10.45;;;5.93;;
69956;SDS011;57283;54.816;9.482;2023-09-12T11:22:45;9.35;;;5.60;;
69956;SDS011;57283;54.816;9.482;2023-09-12T11:25:18;10.53;;;6.60;;
69956;SDS011;57283;54.816;9.482;2023-09-12T11:28:02;10.52;;;5.70;;
69956;SDS011;57283;54.816;9.482;2023-09-12T11:30:30;7.82;;;6.03;;
69956;SDS011;57283;54.816;9.482;2023-09-12T11:32:58;9.38;;;5.57;;
69956;SDS011;57283;54.816;9.482;2023-09-12T11:35:27;9.48;;;6.05;;
69956;SDS011;57283;54.816;9.482;2023-09-12T11:37:55;9.33;;;5.03;;
69956;SDS011;57283;54.816;9.482;2023-09-12T11:40:25;6.70;;;5.10;;
69956;SDS011;57283;54.816;9.482;2023-09-12T11:42:53;7.88;;;5.30;;
69956;SDS011;57283;54.816;9.482;2023-09-12T11:45:22;9.00;;;5.00;;
69956;SDS011;57283;54.816;9.482;2023-09-12T11:47:50;8.98;;;5.95;;
69956;SDS011;57283;54.816;9.482;2023-09-12T11:50:31;7.70;;;5.30;;
69956;SDS011;57283;54.816;9.482;2023-09-12T11:53:00;7.53;;;5.10;;
69956;SDS011;57283;54.816;9.482;2023-09-12T11:55:31;8.13;;;5.70;;
69956;SDS011;57283;54.816;9.482;2023-09-12T11:57:59;8.90;;;5.20;;
69956;SDS011;57283;54.816;9.482;2023-09-12T12:00:27;7.82;;;5.63;;
69956;SDS011;57283;54.816;9.482;2023-09-12T12:02:55;8.57;;;4.50;;
69956;SDS011;57283;54.816;9.482;2023-09-12T12:05:23;9.45;;;5.38;;
69956;SDS011;57283;54.816;9.482;2023-09-12T12:07:51;8.35;;;4.55;;
69956;SDS011;57283;54.816;9.482;2023-09-12T12:10:32;8.15;;;4.78;;
69956;SDS011;57283;54.816;9.482;2023-09-12T12:13:00;8.65;;;5.07;;
69956;SDS011;57283;54.816;9.482;2023-09-12T12:15:28;7.77;;;4.77;;
69956;SDS011;57283;54.816;9.482;2023-09-12T12:17:56;6.82;;;4.60;;
69956;SDS011;57283;54.816;9.482;2023-09-12T12:20:24;6.93;;;4.95;;
69956;SDS011;57283;54.816;9.482;2023-09-12T12:22:51;8.57;;;5.20;;
69956;SDS011;57283;54.816;9.482;2023-09-12T12:25:19;8.35;;;5.32;;
69956;SDS011;57283;54.816;9.482;2023-09-12T12:27:48;8.40;;;5.20;;
69956;SDS011;57283;54.816;9.482;2023-09-12T12:30:17;8.88;;;5.13;;
69956;SDS011;57283;54.816;9.482;2023-09-12T12:32:46;7.25;;;4.93;;
69956;SDS011;57283;54.816;9.482;2023-09-12T12:35:16;6.68;;;4.53;;
69956;SDS011;57283;54.816;9.482;2023-09-12T12:38:04;7.25;;;4.80;;
69956;SDS011;57283;54.816;9.482;2023-09-12T12:40:37;9.80;;;5.13;;
69956;SDS011;57283;54.816;9.482;2023-09-12T12:43:17;8.30;;;5.30;;
69956;SDS011;57283;54.816;9.482;2023-09-12T12:45:52;7.53;;;5.53;;
69956;SDS011;57283;54.816;9.482;2023-09-12T12:48:28;8.38;;;4.95;;
69956;SDS011;57283;54.816;9.482;2023-09-12T12:50:56;7.10;;;4.70;;
69956;SDS011;57283;54.816;9.482;2023-09-12T12:53:36;7.53;;;5.33;;
69956;SDS011;57283;54.816;9.482;2023-09-12T12:56:19;8.65;;;5.30;;
69956;SDS011;57283;54.816;9.482;2023-09-12T12:58:48;8.88;;;5.07;;
69956;SDS011;57283;54.816;9.482;2023-09-12T13:01:16;8.30;;;5.50;;
69956;SDS011;57283;54.816;9.482;2023-09-12T13:03:44;7.88;;;5.57;;
69956;SDS011;57283;54.816;9.482;2023-09-12T13:06:13;8.23;;;5.23;;
69956;SDS011;57283;54.816;9.482;2023-09-12T13:08:41;8.23;;;5.40;;
69956;SDS011;57283;54.816;9.482;2023-09-12T13:11:09;9.65;;;6.00;;
69956;SDS011;57283;54.816;9.482;2023-09-12T13:13:40;8.13;;;5.78;;
69956;SDS011;57283;54.816;9.482;2023-09-12T13:16:10;8.65;;;6.22;;
69956;SDS011;57283;54.816;9.482;2023-09-12T13:18:38;9.17;;;5.37;;
69956;SDS011;57283;54.816;9.482;2023-09-12T13:21:06;7.57;;;4.97;;
69956;SDS011;57283;54.816;9.482;2023-09-12T13:23:34;8.05;;;4.95;;
69956;SDS011;57283;54.816;9.482;2023-09-12T13:26:01;7.93;;;5.50;;
69956;SDS011;57283;54.816;9.482;2023-09-12T13:28:29;8.57;;;5.30;;
69956;SDS011;57283;54.816;9.482;2023-09-12T13:30:57;9.33;;;5.50;;
69956;SDS011;57283;54.816;9.482;2023-09-12T13:33:26;7.95;;;5.00;;
69956;SDS011;57283;54.816;9.482;2023-09-12T13:35:54;7.60;;;5.45;;
69956;SDS011;57283;54.816;9.482;2023-09-12T13:38:21;7.25;;;5.20;;
69956;SDS011;57283;54.816;9.482;2023-09-12T13:40:49;7.53;;;5.32;;
69956;SDS011;57283;54.816;9.482;2023-09-12T13:43:17;9.07;;;5.30;;
69956;SDS011;57283;54.816;9.482;2023-09-12T13:45:46;6.90;;;5.05;;
69956;SDS011;57283;54.816;9.482;2023-09-12T13:48:14;7.82;;;5.10;;
69956;SDS011;57283;54.816;9.482;2023-09-12T13:50:43;7.50;;;5.00;;
69956;SDS011;57283;54.816;9.482;2023-09-12T13:53:10;8.48;;;5.40;;
69956;SDS011;57283;54.816;9.482;2023-09-12T13:55:38;8.53;;;5.47;;
69956;SDS011;57283;54.816;9.482;2023-09-12T13:58:25;7.45;;;4.85;;
69956;SDS011;57283;54.816;9.482;2023-09-12T14:01:08;11.48;;;5.80;;
69956;SDS011;57283;54.816;9.482;2023-09-12T14:03:40;7.75;;;5.75;;
69956;SDS011;57283;54.816;9.482;2023-09-12T14:06:10;8.65;;;5.70;;
69956;SDS011;57283;54.816;9.482;2023-09-12T14:08:37;10.63;;;5.53;;
69956;SDS011;57283;54.816;9.482;2023-09-12T14:11:05;8.07;;;5.35;;
69956;SDS011;57283;54.816;9.482;2023-09-12T14:13:49;8.68;;;5.75;;
69956;SDS011;57283;54.816;9.482;2023-09-12T14:16:33;8.23;;;5.75;;
69956;SDS011;57283;54.816;9.482;2023-09-12T14:19:00;8.40;;;5.47;;
69956;SDS011;57283;54.816;9.482;2023-09-12T14:21:31;9.27;;;5.63;;
69956;SDS011;57283;54.816;9.482;2023-09-12T14:23:59;9.07;;;5.70;;
69956;SDS011;57283;54.816;9.482;2023-09-12T14:26:27;7.63;;;5.35;;
69956;SDS011;57283;54.816;9.482;2023-09-12T14:28:55;8.98;;;5.97;;
69956;SDS011;57283;54.816;9.482;2023-09-12T14:31:23;11.20;;;6.07;;
69956;SDS011;57283;54.816;9.482;2023-09-12T14:33:51;8.17;;;5.63;;
69956;SDS011;57283;54.816;9.482;2023-09-12T14:36:19;10.30;;;6.05;;
69956;SDS011;57283;54.816;9.482;2023-09-12T14:38:48;9.73;;;6.47;;
69956;SDS011;57283;54.816;9.482;2023-09-12T14:41:15;9.20;;;6.40;;
69956;SDS011;57283;54.816;9.482;2023-09-12T14:43:43;9.75;;;6.75;;
69956;SDS011;57283;54.816;9.482;2023-09-12T14:46:11;7.73;;;5.57;;
69956;SDS011;57283;54.816;9.482;2023-09-12T14:48:39;11.40;;;6.43;;
69956;SDS011;57283;54.816;9.482;2023-09-12T14:51:15;9.10;;;6.28;;